Time;durP1;ratioP1;P1;durP2;ratioP2;P2;SDS_P1;SDS_P2;PMS_P1;PMS_P2;Temp;Humidity;BMP_temperature;BMP_pressure;BME280_temperature;BME280_humidity;BME280_pressure;Samples;Min_cycle;Max_cycle;Signal;HPM_P1;HPM_P2
2023/09/12 00:00:15;;;;;;;18.77;11.18;;;;;;;24.65;35.42;100285.97;1764915;81;21286;-78
2023/09/12 00:03:21;;;;;;;16.20;11.40;;;;;;;24.86;35.11;100283.59;1765110;81;21275;-78
2023/09/12 00:06:27;;;;;;;23.52;13.00;;;;;;;24.84;35.15;100284.95;1784489;79;21251;-78
2023/09/12 00:09:31;;;;;;;24.63;11.83;;;;;;;24.90;35.08;100285.30;1761081;81;21369;-78
2023/09/12 00:12:39;;;;;;;18.55;10.88;;;;;;;24.83;35.12;100286.08;1775157;79;21365;-78
2023/09/12 00:15:38;;;;;;;25.15;12.30;;;;;;;24.73;35.19;100284.06;1761437;81;21350;-78
2023/09/12 00:18:46;;;;;;;32.25;11.60;;;;;;;24.73;35.22;100289.09;1774532;80;21317;-78
2023/09/12 00:21:53;;;;;;;19.30;12.58;;;;;;;24.81;35.10;100285.52;1782000;79;21897;-78
2023/09/12 00:24:59;;;;;;;18.02;12.40;;;;;;;24.78;35.13;100286.89;1735026;82;21371;-78
2023/09/12 00:28:05;;;;;;;23.35;14.18;;;;;;;24.72;35.14;100288.82;1726846;82;21318;-78
2023/09/12 00:31:10;;;;;;;25.57;13.70;;;;;;;24.61;35.25;100288.48;1776933;80;21313;-78
2023/09/12 00:34:17;;;;;;;24.75;15.45;;;;;;;24.54;35.36;100286.46;1723731;83;21910;-78
2023/09/12 00:37:24;;;;;;;24.50;14.40;;;;;;;24.41;35.50;100286.92;1773150;80;21352;-77
2023/09/12 00:40:29;;;;;;;29.12;15.13;;;;;;;24.43;35.57;100288.91;1760065;81;21999;-78
2023/09/12 00:43:36;;;;;;;33.02;16.75;;;;;;;24.33;35.83;100287.41;1774162;79;21316;-78
2023/09/12 00:46:40;;;;;;;27.87;16.90;;;;;;;24.35;35.82;100290.77;1760155;81;21871;-78
2023/09/12 00:49:47;;;;;;;28.47;18.20;;;;;;;24.23;35.97;100287.62;1774000;80;21322;-78
2023/09/12 00:52:55;;;;;;;33.02;19.17;;;;;;;24.09;36.18;100287.78;1760315;80;21299;-78
2023/09/12 00:56:04;;;;;;;47.27;18.95;;;;;;;24.07;36.17;100291.37;1773569;80;21375;-78
2023/09/12 00:59:09;;;;;;;37.63;19.73;;;;;;;23.79;36.62;100281.89;1785875;80;21281;-78
2023/09/12 01:02:16;;;;;;;34.23;18.98;;;;;;;23.50;37.14;100286.87;1806522;79;21314;-78
2023/09/12 01:05:23;;;;;;;32.20;18.12;;;;;;;23.44;37.30;100283.19;1795223;79;21322;-78
2023/09/12 01:08:28;;;;;;;42.27;19.37;;;;;;;23.38;37.41;100286.47;1802111;79;21946;-77
2023/09/12 01:11:33;;;;;;;33.80;18.98;;;;;;;23.41;37.37;100283.14;1802227;79;22720;-77
2023/09/12 01:14:39;;;;;;;40.45;18.27;;;;;;;23.47;37.31;100277.89;1774183;79;22362;-78
2023/09/12 01:17:47;;;;;;;44.45;18.45;;;;;;;23.44;37.39;100284.58;1772689;81;21329;-78
2023/09/12 01:21:10;;;;;;;26.85;18.42;;;;;;;23.44;37.41;100283.19;1774111;81;21321;-78
2023/09/12 01:24:55;;;;;;;35.52;19.17;;;;;;;23.32;37.60;100286.10;1773204;81;21353;-78
2023/09/12 01:28:01;;;;;;;34.35;17.85;;;;;;;23.30;37.69;100279.95;1772564;80;21947;-78
2023/09/12 01:31:06;;;;;;;37.48;19.37;;;;;;;23.15;37.89;100280.61;1772072;81;21344;-77
2023/09/12 01:34:19;;;;;;;32.13;18.05;;;;;;;23.21;37.75;100278.72;1773329;81;21818;-78
2023/09/12 01:37:24;;;;;;;33.25;17.67;;;;;;;23.21;37.70;100283.75;1773150;80;21881;-78
2023/09/12 01:40:34;;;;;;;34.60;18.05;;;;;;;23.25;37.65;100291.06;1772029;81;21329;-78
2023/09/12 01:43:40;;;;;;;32.80;17.57;;;;;;;23.08;37.95;100284.69;1790253;79;21881;-78
2023/09/12 01:46:46;;;;;;;39.98;17.32;;;;;;;22.96;38.12;100282.05;1801314;79;22476;-77
2023/09/12 01:49:54;;;;;;;34.15;16.70;;;;;;;22.99;38.05;100288.48;1801615;79;21314;-78
2023/09/12 01:53:00;;;;;;;30.72;17.23;;;;;;;23.06;37.97;100286.36;1803091;79;21306;-78
2023/09/12 01:56:05;;;;;;;28.55;16.55;;;;;;;23.11;37.85;100283.63;1804387;79;21278;-78
2023/09/12 01:59:11;;;;;;;37.40;17.27;;;;;;;23.32;37.11;100279.68;1804417;79;21243;-78
2023/09/12 02:02:15;;;;;;;29.55;17.48;;;;;;;23.20;37.32;100279.84;1804553;79;21318;-78
2023/09/12 02:05:30;;;;;;;28.02;16.48;;;;;;;22.90;38.44;100288.08;1803026;79;21303;-77
2023/09/12 02:08:35;;;;;;;30.40;16.93;;;;;;;22.94;38.83;100288.41;1801844;79;21327;-78
2023/09/12 02:11:42;;;;;;;35.28;17.35;;;;;;;22.71;39.40;100288.90;1802849;79;21349;-78
2023/09/12 02:14:47;;;;;;;31.12;18.45;;;;;;;22.94;39.13;100291.20;1802893;79;21300;-78
2023/09/12 02:17:54;;;;;;;36.77;19.35;;;;;;;22.96;39.18;100289.02;1801581;79;21632;-78
2023/09/12 02:20:59;;;;;;;38.30;20.40;;;;;;;23.12;39.04;100291.45;1802634;79;21330;-79
2023/09/12 02:24:05;;;;;;;42.78;19.70;;;;;;;22.99;39.26;100285.69;1802654;79;21307;-78
2023/09/12 02:27:11;;;;;;;45.17;21.23;;;;;;;23.02;39.25;100286.58;1802671;79;21290;-79
2023/09/12 02:30:17;;;;;;;43.23;20.75;;;;;;;23.00;39.29;100288.77;1802755;79;21337;-78
2023/09/12 02:33:23;;;;;;;40.25;21.02;;;;;;;23.08;39.21;100284.14;1801227;79;21335;-78
2023/09/12 02:36:29;;;;;;;44.42;21.85;;;;;;;22.49;39.98;100289.43;1802312;79;21880;-78
2023/09/12 02:39:36;;;;;;;45.50;21.35;;;;;;;22.87;39.35;100292.77;1772326;79;22496;-78
2023/09/12 02:42:41;;;;;;;38.02;19.75;;;;;;;23.25;38.30;100287.42;1803074;79;21323;-78
2023/09/12 02:45:46;;;;;;;37.42;20.00;;;;;;;23.06;38.53;100293.33;1803513;79;21322;-78
2023/09/12 02:48:52;;;;;;;45.55;19.60;;;;;;;23.03;38.54;100281.84;1801814;79;21341;-78
2023/09/12 02:51:58;;;;;;;30.35;18.05;;;;;;;23.04;38.56;100290.49;1801735;79;22241;-78
2023/09/12 02:55:04;;;;;;;48.58;19.45;;;;;;;23.06;38.60;100289.14;1803154;79;21290;-78
2023/09/12 02:58:09;;;;;;;31.17;18.48;;;;;;;22.99;38.86;100298.80;1802717;79;21303;-78
2023/09/12 03:01:15;;;;;;;37.93;19.80;;;;;;;23.09;38.75;100295.58;1802664;79;21291;-78
2023/09/12 03:04:20;;;;;;;34.27;18.75;;;;;;;22.86;39.11;100296.63;1801336;79;21338;-78
2023/09/12 03:07:27;;;;;;;35.88;17.77;;;;;;;22.94;39.03;100295.39;1784351;79;21341;-78
2023/09/12 03:10:33;;;;;;;31.20;17.92;;;;;;;22.91;39.09;100302.86;1763189;81;21344;-78
2023/09/12 03:13:37;;;;;;;30.08;17.48;;;;;;;22.87;39.18;100307.27;1763004;81;21321;-78
2023/09/12 03:16:37;;;;;;;41.28;17.82;;;;;;;22.89;39.15;100297.55;1762945;81;21313;-78
2023/09/12 03:19:29;;;;;;;29.82;17.17;;;;;;;22.89;39.21;100303.69;1761384;81;21310;-78
2023/09/12 03:22:17;;;;;;;28.55;17.55;;;;;;;23.00;39.00;100303.27;1776988;80;21288;-78
2023/09/12 03:25:09;;;;;;;33.58;17.82;;;;;;;23.05;38.82;100299.98;1725074;83;21309;-78
2023/09/12 03:27:55;;;;;;;32.15;17.62;;;;;;;23.13;38.75;100291.73;1697139;84;21343;-78
2023/09/12 03:31:00;;;;;;;35.10;17.92;;;;;;;23.11;38.86;100300.37;1696079;84;21315;-78
2023/09/12 03:34:06;;;;;;;38.08;17.75;;;;;;;23.12;38.85;100295.07;1742284;81;21331;-78
2023/09/12 03:37:12;;;;;;;32.25;16.23;;;;;;;23.21;38.66;100297.70;1760853;81;21298;-78
2023/09/12 03:40:18;;;;;;;29.10;16.70;;;;;;;23.21;38.75;100302.44;1759664;81;22076;-78
2023/09/12 03:43:23;;;;;;;25.90;16.37;;;;;;;23.34;38.58;100306.80;1775017;80;21751;-78
2023/09/12 03:46:29;;;;;;;31.95;17.23;;;;;;;23.27;38.66;100304.73;1790878;80;21293;-78
2023/09/12 03:49:35;;;;;;;39.40;16.85;;;;;;;23.37;38.57;100307.09;1790619;80;21350;-78
2023/09/12 03:52:40;;;;;;;35.08;16.97;;;;;;;23.48;38.47;100309.47;1773952;80;21629;-78
2023/09/12 03:55:45;;;;;;;28.38;16.32;;;;;;;23.55;38.37;100311.48;1763552;81;21309;-77
2023/09/12 03:58:51;;;;;;;32.08;15.98;;;;;;;23.75;38.12;100315.64;1763083;80;21290;-78
2023/09/12 04:01:58;;;;;;;41.53;17.82;;;;;;;23.73;38.05;100317.86;1762723;81;21301;-78
2023/09/12 04:05:05;;;;;;;38.60;17.32;;;;;;;23.64;38.30;100318.33;1761531;81;21397;-78
2023/09/12 04:08:10;;;;;;;39.80;16.97;;;;;;;23.74;38.23;100323.73;1764085;80;21326;-78
2023/09/12 04:11:16;;;;;;;28.20;17.60;;;;;;;23.77;38.17;100321.27;1761545;81;21381;-78
2023/09/12 04:14:22;;;;;;;33.73;17.27;;;;;;;23.81;38.18;100322.42;1762493;80;21302;-78
2023/09/12 04:17:29;;;;;;;32.50;16.73;;;;;;;24.05;38.18;100325.73;1762737;81;21888;-79
2023/09/12 04:20:34;;;;;;;39.00;17.52;;;;;;;23.98;38.33;100328.72;1761265;81;21896;-79
2023/09/12 04:23:40;;;;;;;38.38;17.20;;;;;;;24.27;38.00;100323.39;1761556;81;22689;-79
2023/09/12 04:26:46;;;;;;;42.13;17.17;;;;;;;24.21;38.26;100328.94;1761914;81;21321;-79
2023/09/12 04:29:53;;;;;;;33.50;16.87;;;;;;;24.27;38.33;100331.22;1762356;81;21345;-79
2023/09/12 04:32:59;;;;;;;32.73;15.30;;;;;;;24.39;38.29;100338.08;1763570;81;21302;-79
2023/09/12 04:36:09;;;;;;;28.12;15.50;;;;;;;24.81;37.70;100333.91;1763701;81;22471;-79
2023/09/12 04:39:15;;;;;;;32.98;15.50;;;;;;;25.04;37.37;100345.24;1762609;81;21325;-79
2023/09/12 04:42:21;;;;;;;33.55;15.95;;;;;;;25.22;37.16;100343.41;1762311;80;21305;-79
2023/09/12 04:45:27;;;;;;;36.77;15.05;;;;;;;25.29;37.06;100343.71;1791835;80;21306;-79
2023/09/12 04:48:32;;;;;;;33.15;14.65;;;;;;;25.43;36.86;100340.13;1791625;80;21839;-79
2023/09/12 04:51:39;;;;;;;27.77;14.78;;;;;;;25.54;36.74;100356.41;1784174;80;21334;-79
2023/09/12 04:54:45;;;;;;;32.55;14.75;;;;;;;25.65;36.67;100351.70;1759501;81;21330;-79
2023/09/12 04:57:51;;;;;;;32.83;14.10;;;;;;;25.73;36.50;100346.94;1755404;80;21959;-79
2023/09/12 05:00:56;;;;;;;32.08;14.68;;;;;;;25.39;37.30;100351.59;1738870;82;21328;-79
2023/09/12 05:04:03;;;;;;;25.48;13.88;;;;;;;25.70;37.09;100348.35;1765541;80;21909;-79
2023/09/12 05:07:11;;;;;;;30.85;14.47;;;;;;;25.56;37.11;100345.79;1774126;79;21282;-79
2023/09/12 05:10:17;;;;;;;23.65;13.68;;;;;;;25.81;36.55;100345.61;1782277;79;21378;-79
2023/09/12 05:13:22;;;;;;;23.98;13.20;;;;;;;26.01;36.32;100349.84;1791877;79;21291;-79
2023/09/12 05:16:29;;;;;;;25.55;13.00;;;;;;;26.31;35.94;100346.81;1768825;79;21340;-79
2023/09/12 05:19:36;;;;;;;22.93;12.88;;;;;;;26.50;35.59;100348.80;1776554;79;22281;-79
2023/09/12 05:22:42;;;;;;;22.58;13.15;;;;;;;26.76;35.05;100347.36;1769447;79;21313;-80
2023/09/12 05:25:48;;;;;;;44.75;15.75;;;;;;;26.99;34.63;100350.13;1792013;79;21315;-79
2023/09/12 05:28:53;;;;;;;39.03;16.65;;;;;;;27.11;34.29;100343.68;1785334;79;21322;-79
2023/09/12 05:31:59;;;;;;;33.50;14.47;;;;;;;27.13;34.35;100349.84;1775733;79;21327;-79
2023/09/12 05:35:05;;;;;;;25.10;13.22;;;;;;;27.25;34.32;100351.78;1775107;79;21304;-79
2023/09/12 05:38:12;;;;;;;31.55;13.28;;;;;;;27.68;33.94;100353.55;1784145;79;21298;-79
2023/09/12 05:41:18;;;;;;;24.55;11.75;;;;;;;27.81;33.80;100349.84;1776802;79;21251;-79
2023/09/12 05:44:24;;;;;;;16.67;10.23;;;;;;;28.05;33.35;100349.44;1778514;79;21298;-79
2023/09/12 05:47:30;;;;;;;16.62;9.15;;;;;;;28.31;32.77;100354.29;1780735;79;21297;-79
2023/09/12 05:50:37;;;;;;;17.45;8.93;;;;;;;28.43;32.75;100355.37;1779574;79;21294;-77
2023/09/12 05:53:42;;;;;;;13.22;7.92;;;;;;;28.76;32.16;100353.09;1773648;79;21270;-76
2023/09/12 05:56:48;;;;;;;14.63;7.28;;;;;;;29.09;31.56;100353.34;1779090;79;22066;-79
2023/09/12 05:59:53;;;;;;;17.12;6.87;;;;;;;29.29;31.36;100355.08;1770026;79;21287;-79
2023/09/12 06:03:11;;;;;;;20.12;6.60;;;;;;;29.48;30.73;100360.77;1782458;77;21891;-80
2023/09/12 06:06:10;;;;;;;22.35;7.67;;;;;;;29.46;30.53;100361.65;1786219;77;33640;-80
2023/09/12 06:09:03;;;;;;;29.67;7.65;;;;;;;29.65;30.42;100363.97;1725806;82;21307;-80
2023/09/12 06:12:10;;;;;;;19.98;6.58;;;;;;;29.79;30.14;100363.48;1723848;81;21310;-80
2023/09/12 06:15:16;;;;;;;14.83;7.10;;;;;;;29.44;30.60;100366.73;1729672;81;21326;-77
2023/09/12 06:18:21;;;;;;;11.45;6.25;;;;;;;29.73;30.36;100365.25;1690683;83;21317;-78
2023/09/12 06:21:26;;;;;;;15.55;6.67;;;;;;;30.03;29.86;100365.41;1681904;83;21205;-79
2023/09/12 06:24:32;;;;;;;17.37;6.65;;;;;;;30.10;29.62;100365.01;1679694;83;21313;-78
2023/09/12 06:27:38;;;;;;;20.12;7.03;;;;;;;30.31;29.32;100365.00;1721935;81;21350;-79
2023/09/12 06:31:00;;;;;;;25.50;9.03;;;;;;;30.41;29.20;100363.42;1729175;81;21310;-80
2023/09/12 06:34:05;;;;;;;34.63;9.65;;;;;;;30.68;28.96;100376.80;1699386;83;21957;-80
2023/09/12 06:37:10;;;;;;;25.62;6.85;;;;;;;30.75;29.00;100378.67;1713576;81;21309;-80
2023/09/12 06:40:16;;;;;;;14.85;6.47;;;;;;;31.02;28.22;100376.48;1722160;81;21203;-78
2023/09/12 06:43:25;;;;;;;12.65;6.45;;;;;;;31.09;27.98;100378.89;1726690;81;21372;-79
2023/09/12 06:46:29;;;;;;;13.35;6.28;;;;;;;31.25;27.84;100385.10;1724933;81;21649;-80
2023/09/12 06:49:38;;;;;;;10.38;5.87;;;;;;;31.21;27.47;100384.05;1734720;81;21350;-80
2023/09/12 06:52:47;;;;;;;9.63;5.10;;;;;;;31.29;27.26;100383.36;1688271;83;21211;-79
2023/09/12 06:55:53;;;;;;;6.20;4.60;;;;;;;31.26;27.17;100386.19;1687641;83;21345;-79
2023/09/12 06:58:59;;;;;;;15.15;4.30;;;;;;;31.38;26.73;100389.09;1677492;83;21323;-79
2023/09/12 07:02:05;;;;;;;9.60;4.17;;;;;;;31.45;26.46;100389.53;1682908;83;21255;-79
2023/09/12 07:05:12;;;;;;;6.58;3.95;;;;;;;31.53;26.46;100394.45;1725528;81;21279;-80
2023/09/12 07:08:21;;;;;;;13.20;3.72;;;;;;;31.64;26.24;100392.25;1729801;81;29765;-80
2023/09/12 07:11:27;;;;;;;9.63;4.08;;;;;;;31.68;25.78;100395.54;1738997;80;21352;-79
2023/09/12 07:14:33;;;;;;;7.53;3.77;;;;;;;31.63;25.70;100397.64;1728206;82;21337;-80
2023/09/12 07:17:38;;;;;;;5.65;3.02;;;;;;;31.60;25.98;100394.02;1749204;80;21321;-80
2023/09/12 07:20:45;;;;;;;8.38;3.55;;;;;;;31.51;25.57;100402.39;1746912;80;21289;-80
2023/09/12 07:23:52;;;;;;;4.72;3.45;;;;;;;31.60;25.74;100404.75;1683394;84;21331;-80
2023/09/12 07:26:58;;;;;;;9.48;4.25;;;;;;;31.66;25.93;100396.41;1689657;83;21346;-79
2023/09/12 07:30:03;;;;;;;5.15;3.40;;;;;;;31.68;25.85;100398.37;1689920;83;21233;-79
2023/09/12 07:33:11;;;;;;;5.50;3.83;;;;;;;31.61;26.06;100392.28;1682177;83;22057;-79
2023/09/12 07:36:17;;;;;;;11.12;3.95;;;;;;;31.79;25.75;100399.81;1727480;82;21335;-80
2023/09/12 07:39:22;;;;;;;5.33;3.45;;;;;;;31.95;25.43;100399.53;1724564;82;21347;-79
2023/09/12 07:42:32;;;;;;;6.60;3.55;;;;;;;32.01;25.57;100397.67;1748873;80;21325;-78
2023/09/12 07:45:40;;;;;;;9.98;4.37;;;;;;;32.13;25.48;100395.69;1750754;80;21277;-80
2023/09/12 07:48:47;;;;;;;6.85;3.35;;;;;;;32.23;25.39;100394.06;1709134;82;21367;-79
2023/09/12 07:51:54;;;;;;;7.70;3.40;;;;;;;32.40;25.49;100398.21;1685272;83;21362;-79
2023/09/12 07:54:58;;;;;;;10.90;3.70;;;;;;;32.22;25.11;100396.60;1675669;83;21182;-79
2023/09/12 07:58:04;;;;;;;6.10;3.35;;;;;;;32.19;24.80;100395.02;1723232;82;21363;-79
2023/09/12 08:01:14;;;;;;;4.80;3.17;;;;;;;31.92;24.49;100402.98;1701346;82;21326;-79
2023/09/12 08:04:21;;;;;;;10.25;3.70;;;;;;;32.13;24.66;100397.09;1736040;80;21926;-79
2023/09/12 08:07:26;;;;;;;6.78;4.10;;;;;;;32.09;24.71;100396.09;1683755;81;27153;-79
2023/09/12 08:10:31;;;;;;;4.85;4.00;;;;;;;31.75;25.00;100399.34;1729019;81;21310;-79
2023/09/12 08:13:39;;;;;;;14.13;3.60;;;;;;;32.18;25.12;100399.81;1720333;81;21195;-79
2023/09/12 08:16:44;;;;;;;7.00;3.87;;;;;;;32.45;24.83;100387.59;1737021;81;21334;-79
2023/09/12 08:19:50;;;;;;;7.45;3.40;;;;;;;32.65;24.82;100392.48;1737715;81;21291;-79
2023/09/12 08:22:56;;;;;;;12.78;4.25;;;;;;;33.02;24.37;100385.59;1734696;81;21293;-79
2023/09/12 08:26:03;;;;;;;5.70;3.27;;;;;;;33.34;24.05;100381.58;1734706;81;21270;-79
2023/09/12 08:29:02;;;;;;;8.28;3.85;;;;;;;33.54;23.60;100387.27;1743930;80;21344;-79
2023/09/12 08:32:08;;;;;;;5.97;3.55;;;;;;;33.67;23.27;100384.06;1725030;81;21567;-79
2023/09/12 08:35:15;;;;;;;5.92;3.90;;;;;;;33.71;23.18;100380.23;1730902;81;22010;-80
2023/09/12 08:38:20;;;;;;;35.10;4.83;;;;;;;33.79;23.06;100382.27;1733029;81;21892;-79
2023/09/12 08:41:26;;;;;;;9.18;3.72;;;;;;;33.74;23.02;100383.84;1738309;81;22189;-79
2023/09/12 08:44:32;;;;;;;7.78;4.00;;;;;;;33.57;23.05;100377.53;1748339;80;21360;-79
2023/09/12 08:47:39;;;;;;;6.75;3.67;;;;;;;33.37;23.43;100379.52;1744977;80;21293;-79
2023/09/12 08:50:46;;;;;;;6.25;3.95;;;;;;;33.28;23.24;100384.31;1742817;80;22307;-79
2023/09/12 08:53:52;;;;;;;10.95;4.03;;;;;;;33.09;23.51;100378.89;1749895;80;21307;-79
2023/09/12 08:56:58;;;;;;;9.35;3.50;;;;;;;33.11;23.60;100379.97;1734420;80;22344;-79
2023/09/12 09:00:10;;;;;;;6.90;3.98;;;;;;;33.22;23.66;100384.18;1739757;80;21893;-79
2023/09/12 09:03:16;;;;;;;9.23;3.45;;;;;;;33.21;23.54;100383.94;1744074;80;21974;-79
2023/09/12 09:06:24;;;;;;;4.72;3.33;;;;;;;33.38;23.51;100380.35;1747793;80;21884;-81
2023/09/12 09:09:32;;;;;;;6.97;3.58;;;;;;;33.31;22.94;100379.39;1731192;80;212221;-80
2023/09/12 09:12:37;;;;;;;6.40;3.65;;;;;;;33.18;23.44;100379.77;1718744;82;22612;-80
2023/09/12 09:15:43;;;;;;;7.70;3.10;;;;;;;33.31;23.14;100377.42;1714065;82;21342;-79
2023/09/12 09:19:01;;;;;;;5.17;3.47;;;;;;;33.51;23.23;100383.11;1723739;82;21302;-79
2023/09/12 09:22:13;;;;;;;12.13;3.58;;;;;;;33.74;22.84;100367.41;1720121;82;21306;-79
2023/09/12 09:25:19;;;;;;;6.95;3.00;;;;;;;33.75;22.85;100367.66;1727241;82;21379;-80
2023/09/12 09:28:27;;;;;;;9.48;3.58;;;;;;;33.59;22.76;100364.43;1725794;82;22602;-80
2023/09/12 09:31:34;;;;;;;7.15;3.52;;;;;;;33.69;22.77;100378.33;1729708;82;21295;-80
2023/09/12 09:34:42;;;;;;;6.85;3.35;;;;;;;33.51;22.79;100369.52;1715985;82;21326;-79
2023/09/12 09:37:49;;;;;;;4.40;2.98;;;;;;;33.53;22.86;100367.17;1706983;82;21315;-79
2023/09/12 09:40:55;;;;;;;13.72;3.47;;;;;;;33.35;22.81;100373.33;1720874;82;21299;-80
2023/09/12 09:44:01;;;;;;;6.25;3.60;;;;;;;33.17;23.12;100371.58;1718210;82;21877;-79
2023/09/12 09:47:09;;;;;;;7.47;3.83;;;;;;;33.05;23.15;100375.03;1718218;82;22122;-80
2023/09/12 09:50:14;;;;;;;7.00;4.42;;;;;;;32.89;23.29;100382.23;1720371;82;21875;-79
2023/09/12 09:53:19;;;;;;;10.50;4.67;;;;;;;32.83;23.24;100380.95;1725763;82;21298;-80
2023/09/12 09:56:30;;;;;;;10.30;4.28;;;;;;;32.82;23.13;100382.11;1715669;82;21290;-80
2023/09/12 09:59:34;;;;;;;11.95;4.15;;;;;;;32.75;23.35;100380.34;1721371;82;21311;-80
2023/09/12 10:02:39;;;;;;;9.65;4.37;;;;;;;32.99;23.00;100384.26;1723987;82;21326;-79
2023/09/12 10:05:46;;;;;;;6.37;4.30;;;;;;;32.24;23.96;100382.99;1714626;82;21352;-79
2023/09/12 10:08:55;;;;;;;13.35;4.53;;;;;;;32.69;23.62;100385.85;1715524;82;21347;-81
2023/09/12 10:12:00;;;;;;;11.35;4.25;;;;;;;32.65;23.78;100386.23;1710850;82;38365;-80
2023/09/12 10:15:07;;;;;;;9.08;4.28;;;;;;;32.64;23.74;100379.48;1703704;82;21940;-80
2023/09/12 10:18:16;;;;;;;6.03;4.15;;;;;;;32.86;23.82;100380.06;1719693;82;21336;-79
2023/09/12 10:21:27;;;;;;;16.32;4.35;;;;;;;32.92;23.26;100382.45;1717311;82;21341;-79
2023/09/12 10:24:33;;;;;;;14.40;4.47;;;;;;;33.00;23.19;100389.34;1713768;83;21690;-79
2023/09/12 10:27:38;;;;;;;9.30;4.12;;;;;;;33.09;22.42;100378.06;1713329;82;21989;-79
2023/09/12 10:30:45;;;;;;;12.13;3.90;;;;;;;33.17;22.48;100373.86;1717083;82;21369;-79
2023/09/12 10:33:51;;;;;;;5.62;3.47;;;;;;;33.18;22.54;100371.27;1712353;83;21330;-79
2023/09/12 10:36:57;;;;;;;5.30;3.47;;;;;;;33.09;21.89;100364.73;1715385;82;21353;-80
2023/09/12 10:40:06;;;;;;;10.32;3.87;;;;;;;33.15;21.96;100369.08;1712609;83;22362;-79
2023/09/12 10:43:12;;;;;;;8.73;3.87;;;;;;;33.05;21.48;100367.95;1721929;82;21322;-80
2023/09/12 10:46:22;;;;;;;5.25;2.80;;;;;;;33.21;21.34;100366.93;1727227;82;21215;-79
2023/09/12 10:49:29;;;;;;;4.97;2.85;;;;;;;33.25;20.46;100363.12;1723215;82;21298;-78
2023/09/12 10:52:39;;;;;;;5.00;3.02;;;;;;;33.48;20.29;100357.41;1720114;82;21951;-79
2023/09/12 10:55:43;;;;;;;12.35;4.20;;;;;;;33.58;20.59;100355.67;1723916;81;21290;-79
2023/09/12 10:59:15;;;;;;;7.08;3.15;;;;;;;33.80;20.88;100348.47;1725380;82;21292;-79
2023/09/12 11:02:43;;;;;;;8.60;3.20;;;;;;;33.86;20.89;100349.73;1724938;82;21888;-80
2023/09/12 11:06:01;;;;;;;9.30;2.92;;;;;;;33.87;20.88;100351.40;1722659;82;21289;-80
2023/09/12 11:09:25;;;;;;;8.58;3.50;;;;;;;33.90;21.13;100346.48;1719663;82;21308;-80
2023/09/12 11:12:44;;;;;;;13.40;3.37;;;;;;;33.76;20.98;100350.30;1714522;82;22554;-79
2023/09/12 11:16:10;;;;;;;8.03;3.62;;;;;;;33.56;20.97;100346.09;1729985;81;21314;-80
2023/09/12 11:19:27;;;;;;;4.35;2.98;;;;;;;33.56;21.09;100333.92;1728713;81;21314;-80
2023/09/12 11:22:43;;;;;;;7.95;2.72;;;;;;;33.73;20.94;100331.09;1717318;82;22595;-79
2023/09/12 11:25:46;;;;;;;11.40;3.40;;;;;;;33.74;21.05;100324.28;1718977;82;22023;-79
2023/09/12 11:28:54;;;;;;;13.38;3.55;;;;;;;33.65;21.25;100331.11;1720113;82;21965;-79
2023/09/12 11:32:06;;;;;;;16.60;3.90;;;;;;;33.68;21.40;100327.00;1707830;83;21350;-79
2023/09/12 11:35:16;;;;;;;7.50;3.42;;;;;;;33.83;21.35;100323.71;1706120;83;21327;-79
2023/09/12 11:38:22;;;;;;;;;;;;;;;33.97;21.34;100322.17;1702479;83;21474;-79
2023/09/12 11:41:48;;;;;;;7.37;2.92;;;;;;;33.96;21.05;100319.65;1682039;84;20315;-79
2023/09/12 11:44:54;;;;;;;12.30;3.45;;;;;;;34.04;21.09;100316.81;1686049;82;21307;-79
2023/09/12 11:47:59;;;;;;;8.45;3.00;;;;;;;34.00;20.69;100316.40;1701991;83;21346;-79
2023/09/12 11:51:09;;;;;;;13.32;3.72;;;;;;;34.04;20.76;100323.91;1705878;83;21828;-80
2023/09/12 11:54:15;;;;;;;9.43;3.17;;;;;;;33.85;20.66;100313.44;1710533;83;21319;-80
2023/09/12 11:57:22;;;;;;;11.40;2.50;;;;;;;33.65;20.76;100306.42;1706441;83;21308;-80
2023/09/12 12:00:26;;;;;;;5.80;3.22;;;;;;;33.40;20.95;100307.14;1705765;82;21394;-79
2023/09/12 12:03:34;;;;;;;9.48;3.37;;;;;;;33.26;21.10;100302.43;1705200;83;22426;-79
2023/09/12 12:06:40;;;;;;;6.67;3.30;;;;;;;33.32;21.06;100305.39;1695496;83;21267;-80
2023/09/12 12:09:45;;;;;;;8.03;3.25;;;;;;;33.37;21.06;100298.73;1712219;83;21322;-80
2023/09/12 12:12:55;;;;;;;6.80;2.70;;;;;;;33.44;21.26;100308.19;1705920;82;21894;-79
2023/09/12 12:16:01;;;;;;;10.78;3.00;;;;;;;33.32;21.02;100309.64;1705621;83;21336;-79
2023/09/12 12:19:08;;;;;;;7.80;3.02;;;;;;;32.67;21.61;100297.58;1692889;83;21317;-80
2023/09/12 12:22:14;;;;;;;6.03;3.15;;;;;;;33.05;21.48;100302.79;1698151;83;21346;-80
2023/09/12 12:25:22;;;;;;;4.90;2.87;;;;;;;33.15;21.54;100305.32;1705738;83;21901;-79
2023/09/12 12:28:28;;;;;;;9.70;3.42;;;;;;;32.72;21.73;100303.68;1702121;83;22230;-79
2023/09/12 12:31:35;;;;;;;8.90;2.87;;;;;;;33.02;21.45;100298.59;1700380;83;22355;-79
2023/09/12 12:34:41;;;;;;;5.83;2.90;;;;;;;32.72;21.64;100303.68;1708091;83;21306;-79
2023/09/12 12:37:48;;;;;;;4.78;2.77;;;;;;;32.87;21.55;100301.00;1695545;83;21340;-79
2023/09/12 12:40:55;;;;;;;6.05;3.00;;;;;;;32.56;21.93;100284.86;1710776;82;21631;-78
2023/09/12 12:44:00;;;;;;;5.72;2.50;;;;;;;32.93;21.22;100287.81;1698912;82;21604;-78
2023/09/12 12:47:09;;;;;;;14.35;3.20;;;;;;;33.01;21.17;100284.77;1696084;84;21383;-78
2023/09/12 12:50:22;;;;;;;4.40;2.98;;;;;;;33.16;21.10;100285.73;1675256;85;21616;-78
2023/09/12 12:53:49;;;;;;;8.38;2.35;;;;;;;33.22;20.90;100281.61;1695409;84;21321;-78
2023/09/12 12:56:55;;;;;;;7.10;2.60;;;;;;;33.27;20.95;100284.29;1690560;84;21303;-79
2023/09/12 13:00:02;;;;;;;9.68;3.15;;;;;;;33.48;20.57;100288.77;1695912;84;21909;-79
2023/09/12 13:03:09;;;;;;;6.22;3.37;;;;;;;33.61;20.10;100291.23;1668448;84;21347;-79
2023/09/12 13:06:17;;;;;;;7.25;3.05;;;;;;;33.67;19.81;100287.64;1701777;84;21338;-80
2023/09/12 13:09:16;;;;;;;6.97;3.40;;;;;;;33.56;19.96;100282.88;1699617;84;21343;-80
2023/09/12 13:12:09;;;;;;;8.70;2.87;;;;;;;33.68;19.98;100276.55;1701285;84;21319;-80
2023/09/12 13:15:15;;;;;;;8.13;3.15;;;;;;;33.89;19.93;100276.74;1701545;84;21949;-80
2023/09/12 13:18:21;;;;;;;6.92;3.02;;;;;;;33.71;19.42;100285.23;1701288;83;21310;-80
2023/09/12 13:21:26;;;;;;;5.28;2.70;;;;;;;33.45;19.45;100289.42;1679363;84;21310;-80
2023/09/12 13:24:32;;;;;;;5.42;3.00;;;;;;;33.63;19.58;100288.88;1699841;84;21918;-80
2023/09/12 13:27:38;;;;;;;5.33;3.00;;;;;;;33.32;20.00;100286.97;1700007;84;21981;-80
2023/09/12 13:30:45;;;;;;;6.12;3.10;;;;;;;33.59;19.92;100282.20;1700520;84;21827;-80
2023/09/12 13:33:50;;;;;;;6.62;3.50;;;;;;;33.50;19.65;100286.47;1700134;84;21355;-80
2023/09/12 13:36:49;;;;;;;6.90;3.30;;;;;;;33.25;19.79;100289.44;1699677;84;21307;-80
2023/09/12 13:39:49;;;;;;;4.78;3.35;;;;;;;33.03;20.00;100282.43;1696943;84;21355;-80
2023/09/12 13:42:54;;;;;;;8.08;3.30;;;;;;;33.09;19.92;100278.89;1699354;84;21355;-79
2023/09/12 13:46:01;;;;;;;5.45;2.85;;;;;;;33.13;20.03;100275.08;1698217;84;21602;-79
2023/09/12 13:49:09;;;;;;;9.60;2.90;;;;;;;33.11;20.19;100275.97;1698674;84;21308;-79
2023/09/12 13:52:15;;;;;;;5.35;3.17;;;;;;;33.20;19.84;100276.00;1699756;84;21303;-79
2023/09/12 13:55:21;;;;;;;4.75;3.02;;;;;;;33.26;19.56;100282.59;1699128;84;21347;-79
2023/09/12 13:58:29;;;;;;;8.05;2.80;;;;;;;33.20;19.79;100277.42;1698431;84;21343;-79
2023/09/12 14:01:35;;;;;;;7.17;3.15;;;;;;;33.22;20.61;100274.52;1698907;84;21316;-79
2023/09/12 14:04:41;;;;;;;7.10;3.17;;;;;;;32.99;21.30;100280.03;1699596;84;21362;-79
2023/09/12 14:07:49;;;;;;;6.75;3.12;;;;;;;32.88;21.59;100281.42;1699042;84;21639;-79
2023/09/12 14:10:55;;;;;;;17.50;3.70;;;;;;;32.76;21.79;100277.22;1698432;84;21347;-78
2023/09/12 14:14:01;;;;;;;7.87;2.98;;;;;;;32.65;21.99;100277.81;1698287;84;21300;-79
2023/09/12 14:17:08;;;;;;;10.25;3.55;;;;;;;32.42;22.10;100289.19;1699602;84;21352;-79